sensor_id;sensor_type;location;lat;lon;timestamp;P1;durP1;ratioP1;P2;durP2;ratioP2
20454;SDS011;10386;54.314;10.022;2022-10-16T00:00:29;21.30;;;10.43;;
20454;SDS011;10386;54.314;10.022;2022-10-16T00:02:56;16.67;;;9.47;;
20454;SDS011;10386;54.314;10.022;2022-10-16T00:05:23;18.37;;;8.20;;
20454;SDS011;10386;54.314;10.022;2022-10-16T00:07:50;20.07;;;9.60;;
20454;SDS011;10386;54.314;10.022;2022-10-16T00:10:16;18.17;;;10.27;;
20454;SDS011;10386;54.314;10.022;2022-10-16T00:12:43;18.77;;;9.00;;
20454;SDS011;10386;54.314;10.022;2022-10-16T00:15:10;17.97;;;8.60;;
20454;SDS011;10386;54.314;10.022;2022-10-16T00:17:37;17.40;;;8.83;;
20454;SDS011;10386;54.314;10.022;2022-10-16T00:20:04;16.23;;;9.10;;
20454;SDS011;10386;54.314;10.022;2022-10-16T00:22:31;18.13;;;8.43;;
20454;SDS011;10386;54.314;10.022;2022-10-16T00:24:58;17.43;;;8.23;;
20454;SDS011;10386;54.314;10.022;2022-10-16T00:27:25;14.77;;;8.40;;
20454;SDS011;10386;54.314;10.022;2022-10-16T00:29:52;20.63;;;8.47;;
20454;SDS011;10386;54.314;10.022;2022-10-16T00:32:19;15.17;;;8.40;;
20454;SDS011;10386;54.314;10.022;2022-10-16T00:34:46;15.60;;;8.10;;
20454;SDS011;10386;54.314;10.022;2022-10-16T00:37:13;20.90;;;8.57;;
20454;SDS011;10386;54.314;10.022;2022-10-16T00:39:40;16.97;;;7.53;;
20454;SDS011;10386;54.314;10.022;2022-10-16T00:42:27;18.43;;;8.37;;
20454;SDS011;10386;54.314;10.022;2022-10-16T00:44:55;15.03;;;7.70;;
20454;SDS011;10386;54.314;10.022;2022-10-16T00:50:27;13.73;;;7.47;;
20454;SDS011;10386;54.314;10.022;2022-10-16T00:52:56;21.83;;;7.70;;
20454;SDS011;10386;54.314;10.022;2022-10-16T00:55:25;13.87;;;7.10;;
20454;SDS011;10386;54.314;10.022;2022-10-16T00:57:54;10.10;;;6.70;;
20454;SDS011;10386;54.314;10.022;2022-10-16T01:00:21;18.27;;;6.87;;
20454;SDS011;10386;54.314;10.022;2022-10-16T01:02:52;13.87;;;7.27;;
20454;SDS011;10386;54.314;10.022;2022-10-16T01:05:23;15.27;;;6.10;;
20454;SDS011;10386;54.314;10.022;2022-10-16T01:07:58;13.27;;;6.37;;
20454;SDS011;10386;54.314;10.022;2022-10-16T01:10:35;12.33;;;7.03;;
20454;SDS011;10386;54.314;10.022;2022-10-16T01:13:07;10.70;;;6.67;;
20454;SDS011;10386;54.314;10.022;2022-10-16T01:15:42;14.20;;;6.63;;
20454;SDS011;10386;54.314;10.022;2022-10-16T01:18:25;13.47;;;6.47;;
20454;SDS011;10386;54.314;10.022;2022-10-16T01:20:57;14.77;;;7.03;;
20454;SDS011;10386;54.314;10.022;2022-10-16T01:29:00;13.77;;;7.03;;
20454;SDS011;10386;54.314;10.022;2022-10-16T01:31:34;16.00;;;7.30;;
20454;SDS011;10386;54.314;10.022;2022-10-16T01:34:07;17.23;;;6.90;;
20454;SDS011;10386;54.314;10.022;2022-10-16T01:36:56;16.87;;;7.47;;
20454;SDS011;10386;54.314;10.022;2022-10-16T01:39:31;15.40;;;6.90;;
20454;SDS011;10386;54.314;10.022;2022-10-16T01:42:03;12.17;;;7.23;;
20454;SDS011;10386;54.314;10.022;2022-10-16T01:44:34;12.30;;;6.83;;
20454;SDS011;10386;54.314;10.022;2022-10-16T01:47:04;16.13;;;7.47;;
20454;SDS011;10386;54.314;10.022;2022-10-16T01:49:34;14.07;;;6.90;;
20454;SDS011;10386;54.314;10.022;2022-10-16T01:52:09;16.97;;;7.50;;
20454;SDS011;10386;54.314;10.022;2022-10-16T01:54:40;15.83;;;7.00;;
20454;SDS011;10386;54.314;10.022;2022-10-16T01:57:08;12.50;;;7.47;;
20454;SDS011;10386;54.314;10.022;2022-10-16T01:59:38;14.70;;;7.87;;
20454;SDS011;10386;54.314;10.022;2022-10-16T02:02:10;17.50;;;7.23;;
20454;SDS011;10386;54.314;10.022;2022-10-16T02:04:43;14.30;;;7.40;;
20454;SDS011;10386;54.314;10.022;2022-10-16T02:07:12;19.87;;;7.90;;
20454;SDS011;10386;54.314;10.022;2022-10-16T02:09:40;12.67;;;6.93;;
20454;SDS011;10386;54.314;10.022;2022-10-16T02:12:41;13.90;;;7.07;;
20454;SDS011;10386;54.314;10.022;2022-10-16T02:15:01;20.97;;;7.80;;
20454;SDS011;10386;54.314;10.022;2022-10-16T02:17:29;18.90;;;8.00;;
20454;SDS011;10386;54.314;10.022;2022-10-16T02:19:56;16.97;;;7.63;;
20454;SDS011;10386;54.314;10.022;2022-10-16T02:22:28;14.67;;;7.23;;
20454;SDS011;10386;54.314;10.022;2022-10-16T02:27:37;16.57;;;8.13;;
20454;SDS011;10386;54.314;10.022;2022-10-16T02:33:01;14.83;;;7.07;;
20454;SDS011;10386;54.314;10.022;2022-10-16T02:35:31;15.97;;;6.87;;
20454;SDS011;10386;54.314;10.022;2022-10-16T02:37:58;15.53;;;7.13;;
20454;SDS011;10386;54.314;10.022;2022-10-16T02:40:26;15.63;;;7.93;;
20454;SDS011;10386;54.314;10.022;2022-10-16T02:42:54;15.20;;;7.20;;
20454;SDS011;10386;54.314;10.022;2022-10-16T02:45:21;13.20;;;7.20;;
20454;SDS011;10386;54.314;10.022;2022-10-16T02:47:49;14.53;;;6.93;;
20454;SDS011;10386;54.314;10.022;2022-10-16T02:50:16;12.87;;;6.93;;
20454;SDS011;10386;54.314;10.022;2022-10-16T02:52:43;17.77;;;7.63;;
20454;SDS011;10386;54.314;10.022;2022-10-16T02:55:09;13.00;;;7.60;;
20454;SDS011;10386;54.314;10.022;2022-10-16T02:57:36;19.23;;;7.07;;
20454;SDS011;10386;54.314;10.022;2022-10-16T03:00:04;13.10;;;6.80;;
20454;SDS011;10386;54.314;10.022;2022-10-16T03:02:31;17.47;;;7.57;;
20454;SDS011;10386;54.314;10.022;2022-10-16T03:04:58;12.40;;;6.57;;
20454;SDS011;10386;54.314;10.022;2022-10-16T03:07:24;14.90;;;7.33;;
20454;SDS011;10386;54.314;10.022;2022-10-16T03:09:52;14.03;;;6.73;;
20454;SDS011;10386;54.314;10.022;2022-10-16T03:12:18;15.17;;;7.13;;
20454;SDS011;10386;54.314;10.022;2022-10-16T03:14:45;21.13;;;7.00;;
20454;SDS011;10386;54.314;10.022;2022-10-16T03:17:12;17.23;;;6.67;;
20454;SDS011;10386;54.314;10.022;2022-10-16T03:19:39;12.53;;;6.23;;
20454;SDS011;10386;54.314;10.022;2022-10-16T03:22:06;13.63;;;6.93;;
20454;SDS011;10386;54.314;10.022;2022-10-16T03:24:32;16.63;;;7.20;;
20454;SDS011;10386;54.314;10.022;2022-10-16T03:26:59;20.57;;;6.77;;
20454;SDS011;10386;54.314;10.022;2022-10-16T03:29:26;13.33;;;6.50;;
20454;SDS011;10386;54.314;10.022;2022-10-16T03:31:53;21.00;;;6.80;;
20454;SDS011;10386;54.314;10.022;2022-10-16T03:34:20;14.63;;;6.27;;
20454;SDS011;10386;54.314;10.022;2022-10-16T03:36:47;12.90;;;5.83;;
20454;SDS011;10386;54.314;10.022;2022-10-16T03:39:14;15.53;;;6.00;;
20454;SDS011;10386;54.314;10.022;2022-10-16T03:41:40;13.97;;;5.70;;
20454;SDS011;10386;54.314;10.022;2022-10-16T03:44:07;11.10;;;6.07;;
20454;SDS011;10386;54.314;10.022;2022-10-16T03:46:34;11.03;;;5.30;;
20454;SDS011;10386;54.314;10.022;2022-10-16T03:49:00;11.30;;;5.73;;
20454;SDS011;10386;54.314;10.022;2022-10-16T03:51:32;13.63;;;6.10;;
20454;SDS011;10386;54.314;10.022;2022-10-16T03:53:59;17.20;;;5.70;;
20454;SDS011;10386;54.314;10.022;2022-10-16T03:56:25;12.00;;;4.80;;
20454;SDS011;10386;54.314;10.022;2022-10-16T03:58:52;9.83;;;5.07;;
20454;SDS011;10386;54.314;10.022;2022-10-16T04:01:19;9.80;;;5.00;;
20454;SDS011;10386;54.314;10.022;2022-10-16T04:03:45;16.10;;;4.93;;
20454;SDS011;10386;54.314;10.022;2022-10-16T04:06:12;8.93;;;4.63;;
20454;SDS011;10386;54.314;10.022;2022-10-16T04:08:39;11.33;;;4.60;;
20454;SDS011;10386;54.314;10.022;2022-10-16T04:11:08;9.63;;;4.63;;
20454;SDS011;10386;54.314;10.022;2022-10-16T04:13:34;10.87;;;4.70;;
20454;SDS011;10386;54.314;10.022;2022-10-16T04:16:01;11.47;;;4.10;;
20454;SDS011;10386;54.314;10.022;2022-10-16T04:18:28;8.93;;;3.60;;
20454;SDS011;10386;54.314;10.022;2022-10-16T04:20:55;7.10;;;3.70;;
20454;SDS011;10386;54.314;10.022;2022-10-16T04:23:21;10.07;;;4.03;;
20454;SDS011;10386;54.314;10.022;2022-10-16T04:25:49;13.40;;;4.10;;
20454;SDS011;10386;54.314;10.022;2022-10-16T04:28:16;13.27;;;3.97;;
20454;SDS011;10386;54.314;10.022;2022-10-16T04:30:43;9.90;;;3.73;;
20454;SDS011;10386;54.314;10.022;2022-10-16T04:33:10;8.57;;;3.53;;
20454;SDS011;10386;54.314;10.022;2022-10-16T04:35:37;9.73;;;3.83;;
20454;SDS011;10386;54.314;10.022;2022-10-16T04:38:03;7.30;;;3.90;;
20454;SDS011;10386;54.314;10.022;2022-10-16T04:40:30;11.50;;;3.57;;
20454;SDS011;10386;54.314;10.022;2022-10-16T04:43:03;6.30;;;3.40;;
20454;SDS011;10386;54.314;10.022;2022-10-16T04:45:30;9.40;;;3.10;;
20454;SDS011;10386;54.314;10.022;2022-10-16T04:47:57;8.10;;;3.20;;
20454;SDS011;10386;54.314;10.022;2022-10-16T04:50:24;6.23;;;2.40;;
20454;SDS011;10386;54.314;10.022;2022-10-16T04:52:51;11.00;;;3.57;;
20454;SDS011;10386;54.314;10.022;2022-10-16T04:55:18;5.07;;;2.90;;
20454;SDS011;10386;54.314;10.022;2022-10-16T04:57:45;7.97;;;3.00;;
20454;SDS011;10386;54.314;10.022;2022-10-16T05:00:12;7.87;;;2.60;;
20454;SDS011;10386;54.314;10.022;2022-10-16T05:02:39;4.20;;;2.80;;
20454;SDS011;10386;54.314;10.022;2022-10-16T05:05:06;14.53;;;2.83;;
20454;SDS011;10386;54.314;10.022;2022-10-16T05:07:33;3.93;;;2.87;;
20454;SDS011;10386;54.314;10.022;2022-10-16T05:09:59;9.77;;;2.43;;
20454;SDS011;10386;54.314;10.022;2022-10-16T05:12:26;5.67;;;3.07;;
20454;SDS011;10386;54.314;10.022;2022-10-16T05:14:53;8.67;;;2.93;;
20454;SDS011;10386;54.314;10.022;2022-10-16T05:17:24;9.23;;;2.73;;
20454;SDS011;10386;54.314;10.022;2022-10-16T05:19:52;8.97;;;2.43;;
20454;SDS011;10386;54.314;10.022;2022-10-16T05:22:19;4.17;;;2.63;;
20454;SDS011;10386;54.314;10.022;2022-10-16T05:24:46;5.43;;;2.47;;
20454;SDS011;10386;54.314;10.022;2022-10-16T05:27:12;7.10;;;2.80;;
20454;SDS011;10386;54.314;10.022;2022-10-16T05:29:45;9.13;;;2.50;;
20454;SDS011;10386;54.314;10.022;2022-10-16T05:32:13;4.20;;;2.73;;
20454;SDS011;10386;54.314;10.022;2022-10-16T05:34:41;2.87;;;2.57;;
20454;SDS011;10386;54.314;10.022;2022-10-16T05:37:07;4.80;;;2.53;;
20454;SDS011;10386;54.314;10.022;2022-10-16T05:39:35;6.07;;;2.40;;
20454;SDS011;10386;54.314;10.022;2022-10-16T05:42:03;6.17;;;3.03;;
20454;SDS011;10386;54.314;10.022;2022-10-16T05:44:31;5.33;;;2.23;;
20454;SDS011;10386;54.314;10.022;2022-10-16T05:47:02;4.30;;;2.20;;
20454;SDS011;10386;54.314;10.022;2022-10-16T05:49:29;12.27;;;3.10;;
20454;SDS011;10386;54.314;10.022;2022-10-16T05:51:56;7.03;;;2.40;;
20454;SDS011;10386;54.314;10.022;2022-10-16T05:54:23;4.13;;;2.50;;
20454;SDS011;10386;54.314;10.022;2022-10-16T05:56:49;6.47;;;2.40;;
20454;SDS011;10386;54.314;10.022;2022-10-16T05:59:16;5.00;;;2.60;;
20454;SDS011;10386;54.314;10.022;2022-10-16T06:01:43;12.57;;;2.90;;
20454;SDS011;10386;54.314;10.022;2022-10-16T06:04:10;7.73;;;2.40;;
20454;SDS011;10386;54.314;10.022;2022-10-16T06:06:37;10.57;;;2.47;;
20454;SDS011;10386;54.314;10.022;2022-10-16T06:09:04;17.17;;;6.43;;
20454;SDS011;10386;54.314;10.022;2022-10-16T06:11:31;18.07;;;5.73;;
20454;SDS011;10386;54.314;10.022;2022-10-16T06:14:00;18.17;;;6.23;;
20454;SDS011;10386;54.314;10.022;2022-10-16T06:16:29;10.90;;;2.63;;
20454;SDS011;10386;54.314;10.022;2022-10-16T06:18:55;8.00;;;4.13;;
20454;SDS011;10386;54.314;10.022;2022-10-16T06:21:23;8.93;;;2.40;;
20454;SDS011;10386;54.314;10.022;2022-10-16T06:23:52;5.47;;;2.30;;
20454;SDS011;10386;54.314;10.022;2022-10-16T06:26:20;4.87;;;1.93;;
20454;SDS011;10386;54.314;10.022;2022-10-16T06:28:49;4.70;;;2.27;;
20454;SDS011;10386;54.314;10.022;2022-10-16T06:31:16;4.33;;;2.20;;
20454;SDS011;10386;54.314;10.022;2022-10-16T06:33:44;6.80;;;2.70;;
20454;SDS011;10386;54.314;10.022;2022-10-16T06:36:14;5.07;;;2.30;;
20454;SDS011;10386;54.314;10.022;2022-10-16T06:38:42;4.63;;;2.93;;
20454;SDS011;10386;54.314;10.022;2022-10-16T06:41:11;4.97;;;2.20;;
20454;SDS011;10386;54.314;10.022;2022-10-16T06:43:39;3.13;;;2.00;;
20454;SDS011;10386;54.314;10.022;2022-10-16T06:46:07;3.93;;;1.97;;
20454;SDS011;10386;54.314;10.022;2022-10-16T06:48:36;3.50;;;2.00;;
20454;SDS011;10386;54.314;10.022;2022-10-16T06:51:04;5.47;;;2.27;;
20454;SDS011;10386;54.314;10.022;2022-10-16T06:53:33;5.17;;;2.30;;
20454;SDS011;10386;54.314;10.022;2022-10-16T06:56:15;6.57;;;2.10;;
20454;SDS011;10386;54.314;10.022;2022-10-16T06:58:52;6.17;;;1.83;;
20454;SDS011;10386;54.314;10.022;2022-10-16T07:01:21;5.03;;;1.73;;
20454;SDS011;10386;54.314;10.022;2022-10-16T07:03:49;6.20;;;2.27;;
20454;SDS011;10386;54.314;10.022;2022-10-16T07:06:17;5.87;;;2.10;;
20454;SDS011;10386;54.314;10.022;2022-10-16T07:08:46;5.03;;;2.20;;
20454;SDS011;10386;54.314;10.022;2022-10-16T07:11:14;5.23;;;1.80;;
20454;SDS011;10386;54.314;10.022;2022-10-16T07:13:43;2.03;;;1.80;;
20454;SDS011;10386;54.314;10.022;2022-10-16T07:16:18;4.37;;;2.00;;
20454;SDS011;10386;54.314;10.022;2022-10-16T07:18:47;2.37;;;1.80;;
20454;SDS011;10386;54.314;10.022;2022-10-16T07:21:16;3.20;;;2.10;;
20454;SDS011;10386;54.314;10.022;2022-10-16T07:23:46;4.37;;;2.10;;
20454;SDS011;10386;54.314;10.022;2022-10-16T07:26:20;3.97;;;1.93;;
20454;SDS011;10386;54.314;10.022;2022-10-16T07:28:47;4.53;;;2.20;;
20454;SDS011;10386;54.314;10.022;2022-10-16T07:31:15;3.10;;;2.10;;
20454;SDS011;10386;54.314;10.022;2022-10-16T07:33:43;3.73;;;1.90;;
20454;SDS011;10386;54.314;10.022;2022-10-16T07:36:11;4.90;;;2.40;;
20454;SDS011;10386;54.314;10.022;2022-10-16T07:38:41;8.07;;;2.10;;
20454;SDS011;10386;54.314;10.022;2022-10-16T07:41:10;6.37;;;2.97;;
20454;SDS011;10386;54.314;10.022;2022-10-16T07:43:38;8.23;;;2.30;;
20454;SDS011;10386;54.314;10.022;2022-10-16T07:46:05;5.73;;;2.10;;
20454;SDS011;10386;54.314;10.022;2022-10-16T07:48:33;4.43;;;2.57;;
20454;SDS011;10386;54.314;10.022;2022-10-16T07:51:01;9.13;;;3.00;;
20454;SDS011;10386;54.314;10.022;2022-10-16T07:53:30;7.10;;;2.50;;
20454;SDS011;10386;54.314;10.022;2022-10-16T07:56:02;4.40;;;2.73;;
20454;SDS011;10386;54.314;10.022;2022-10-16T07:58:30;7.30;;;2.77;;
20454;SDS011;10386;54.314;10.022;2022-10-16T08:00:58;3.53;;;2.20;;
20454;SDS011;10386;54.314;10.022;2022-10-16T08:03:25;6.17;;;2.50;;
20454;SDS011;10386;54.314;10.022;2022-10-16T08:05:52;4.47;;;2.30;;
20454;SDS011;10386;54.314;10.022;2022-10-16T08:08:19;8.33;;;2.43;;
20454;SDS011;10386;54.314;10.022;2022-10-16T08:10:49;3.43;;;2.30;;
20454;SDS011;10386;54.314;10.022;2022-10-16T08:13:20;4.87;;;2.80;;
20454;SDS011;10386;54.314;10.022;2022-10-16T08:15:47;4.80;;;2.37;;
20454;SDS011;10386;54.314;10.022;2022-10-16T08:18:14;6.87;;;2.00;;
20454;SDS011;10386;54.314;10.022;2022-10-16T08:20:42;5.63;;;2.50;;
20454;SDS011;10386;54.314;10.022;2022-10-16T08:23:09;2.67;;;2.20;;
20454;SDS011;10386;54.314;10.022;2022-10-16T08:25:38;3.90;;;2.70;;
20454;SDS011;10386;54.314;10.022;2022-10-16T08:28:06;7.60;;;3.17;;
20454;SDS011;10386;54.314;10.022;2022-10-16T08:30:34;12.33;;;2.80;;
20454;SDS011;10386;54.314;10.022;2022-10-16T08:33:01;6.93;;;2.90;;
20454;SDS011;10386;54.314;10.022;2022-10-16T08:35:28;3.93;;;2.67;;
20454;SDS011;10386;54.314;10.022;2022-10-16T08:37:55;5.93;;;3.23;;
20454;SDS011;10386;54.314;10.022;2022-10-16T08:40:28;5.07;;;3.13;;
20454;SDS011;10386;54.314;10.022;2022-10-16T08:48:27;4.67;;;3.10;;
20454;SDS011;10386;54.314;10.022;2022-10-16T08:51:00;7.13;;;3.27;;
20454;SDS011;10386;54.314;10.022;2022-10-16T08:54:03;6.03;;;2.87;;
20454;SDS011;10386;54.314;10.022;2022-10-16T08:56:24;7.57;;;3.33;;
20454;SDS011;10386;54.314;10.022;2022-10-16T08:58:52;9.37;;;3.53;;
20454;SDS011;10386;54.314;10.022;2022-10-16T09:01:37;8.90;;;3.17;;
20454;SDS011;10386;54.314;10.022;2022-10-16T09:06:41;6.80;;;2.80;;
20454;SDS011;10386;54.314;10.022;2022-10-16T09:17:37;9.33;;;2.80;;
20454;SDS011;10386;54.314;10.022;2022-10-16T09:20:20;10.03;;;3.40;;
20454;SDS011;10386;54.314;10.022;2022-10-16T09:23:00;7.47;;;3.47;;
20454;SDS011;10386;54.314;10.022;2022-10-16T09:25:39;10.60;;;3.27;;
20454;SDS011;10386;54.314;10.022;2022-10-16T09:28:07;8.63;;;2.67;;
20454;SDS011;10386;54.314;10.022;2022-10-16T09:30:35;9.13;;;2.90;;
20454;SDS011;10386;54.314;10.022;2022-10-16T09:33:03;8.67;;;2.50;;
20454;SDS011;10386;54.314;10.022;2022-10-16T09:38:05;8.53;;;3.07;;
20454;SDS011;10386;54.314;10.022;2022-10-16T09:43:07;6.20;;;2.40;;
20454;SDS011;10386;54.314;10.022;2022-10-16T09:45:55;6.80;;;2.67;;
20454;SDS011;10386;54.314;10.022;2022-10-16T09:48:30;8.43;;;2.43;;
20454;SDS011;10386;54.314;10.022;2022-10-16T09:51:16;12.43;;;3.43;;
20454;SDS011;10386;54.314;10.022;2022-10-16T09:53:46;18.83;;;3.57;;
20454;SDS011;10386;54.314;10.022;2022-10-16T09:56:27;7.40;;;2.47;;
20454;SDS011;10386;54.314;10.022;2022-10-16T09:58:57;5.33;;;2.30;;
20454;SDS011;10386;54.314;10.022;2022-10-16T10:01:35;9.30;;;2.53;;
20454;SDS011;10386;54.314;10.022;2022-10-16T10:04:05;8.47;;;3.00;;
20454;SDS011;10386;54.314;10.022;2022-10-16T10:06:40;9.00;;;2.60;;
20454;SDS011;10386;54.314;10.022;2022-10-16T10:09:15;7.13;;;2.60;;
20454;SDS011;10386;54.314;10.022;2022-10-16T10:11:52;8.97;;;3.33;;
20454;SDS011;10386;54.314;10.022;2022-10-16T10:19:39;9.57;;;2.60;;
20454;SDS011;10386;54.314;10.022;2022-10-16T10:22:31;8.83;;;2.90;;
20454;SDS011;10386;54.314;10.022;2022-10-16T10:33:31;6.70;;;2.97;;
20454;SDS011;10386;54.314;10.022;2022-10-16T10:38:41;7.10;;;2.70;;
20454;SDS011;10386;54.314;10.022;2022-10-16T10:41:39;5.43;;;2.27;;
20454;SDS011;10386;54.314;10.022;2022-10-16T10:50:14;7.30;;;2.40;;
20454;SDS011;10386;54.314;10.022;2022-10-16T10:58:12;17.90;;;2.90;;
20454;SDS011;10386;54.314;10.022;2022-10-16T11:03:35;5.73;;;2.57;;
20454;SDS011;10386;54.314;10.022;2022-10-16T11:06:08;8.63;;;2.40;;
20454;SDS011;10386;54.314;10.022;2022-10-16T11:08:43;10.17;;;2.30;;
20454;SDS011;10386;54.314;10.022;2022-10-16T11:11:17;9.50;;;2.33;;
20454;SDS011;10386;54.314;10.022;2022-10-16T11:16:17;6.80;;;2.20;;
20454;SDS011;10386;54.314;10.022;2022-10-16T11:18:56;5.13;;;1.80;;
20454;SDS011;10386;54.314;10.022;2022-10-16T11:21:30;6.40;;;1.87;;
20454;SDS011;10386;54.314;10.022;2022-10-16T11:24:17;4.83;;;1.60;;
20454;SDS011;10386;54.314;10.022;2022-10-16T11:26:49;7.23;;;2.10;;
20454;SDS011;10386;54.314;10.022;2022-10-16T11:29:22;4.43;;;1.80;;
20454;SDS011;10386;54.314;10.022;2022-10-16T11:31:55;4.17;;;1.57;;
20454;SDS011;10386;54.314;10.022;2022-10-16T11:34:33;3.97;;;1.70;;
20454;SDS011;10386;54.314;10.022;2022-10-16T11:37:15;8.40;;;1.70;;
20454;SDS011;10386;54.314;10.022;2022-10-16T11:39:46;10.10;;;1.83;;
20454;SDS011;10386;54.314;10.022;2022-10-16T11:42:22;7.23;;;1.57;;
20454;SDS011;10386;54.314;10.022;2022-10-16T11:45:09;7.97;;;1.87;;
20454;SDS011;10386;54.314;10.022;2022-10-16T11:48:41;4.17;;;1.87;;
20454;SDS011;10386;54.314;10.022;2022-10-16T11:51:02;7.73;;;1.50;;
20454;SDS011;10386;54.314;10.022;2022-10-16T11:53:53;11.30;;;1.80;;
20454;SDS011;10386;54.314;10.022;2022-10-16T11:57:01;6.40;;;1.70;;
20454;SDS011;10386;54.314;10.022;2022-10-16T12:08:10;4.77;;;1.40;;
20454;SDS011;10386;54.314;10.022;2022-10-16T12:10:39;7.00;;;1.97;;
20454;SDS011;10386;54.314;10.022;2022-10-16T12:18:39;11.57;;;2.10;;
20454;SDS011;10386;54.314;10.022;2022-10-16T12:21:07;9.30;;;1.70;;
20454;SDS011;10386;54.314;10.022;2022-10-16T12:23:45;8.47;;;2.00;;
20454;SDS011;10386;54.314;10.022;2022-10-16T12:26:22;8.13;;;2.10;;
20454;SDS011;10386;54.314;10.022;2022-10-16T12:28:51;8.40;;;2.07;;
20454;SDS011;10386;54.314;10.022;2022-10-16T12:31:20;5.07;;;1.77;;
20454;SDS011;10386;54.314;10.022;2022-10-16T12:36:33;11.73;;;1.87;;
20454;SDS011;10386;54.314;10.022;2022-10-16T12:39:19;4.17;;;1.50;;
20454;SDS011;10386;54.314;10.022;2022-10-16T12:42:54;8.00;;;2.47;;
20454;SDS011;10386;54.314;10.022;2022-10-16T13:30:53;11.03;;;2.30;;
20454;SDS011;10386;54.314;10.022;2022-10-16T14:44:42;8.43;;;1.77;;
20454;SDS011;10386;54.314;10.022;2022-10-16T14:47:15;10.37;;;2.47;;
20454;SDS011;10386;54.314;10.022;2022-10-16T15:27:00;17.90;;;2.83;;
20454;SDS011;10386;54.314;10.022;2022-10-16T15:29:29;12.53;;;2.10;;
20454;SDS011;10386;54.314;10.022;2022-10-16T15:59:02;16.20;;;2.40;;
20454;SDS011;10386;54.314;10.022;2022-10-16T16:01:54;14.50;;;2.43;;
20454;SDS011;10386;54.314;10.022;2022-10-16T18:48:24;21.67;;;4.30;;
20454;SDS011;10386;54.314;10.022;2022-10-16T19:25:11;15.27;;;3.53;;
20454;SDS011;10386;54.314;10.022;2022-10-16T19:56:16;20.20;;;3.63;;
20454;SDS011;10386;54.314;10.022;2022-10-16T19:59:00;16.40;;;3.33;;
20454;SDS011;10386;54.314;10.022;2022-10-16T20:08:16;18.77;;;2.83;;
20454;SDS011;10386;54.314;10.022;2022-10-16T20:30:49;22.90;;;3.53;;
20454;SDS011;10386;54.314;10.022;2022-10-16T21:10:18;20.77;;;3.80;;
20454;SDS011;10386;54.314;10.022;2022-10-16T21:27:15;22.73;;;3.13;;
20454;SDS011;10386;54.314;10.022;2022-10-16T21:30:20;15.40;;;3.30;;
20454;SDS011;10386;54.314;10.022;2022-10-16T23:02:30;21.63;;;3.40;;
20454;SDS011;10386;54.314;10.022;2022-10-16T23:52:55;10.63;;;3.23;;
